Miami, Florida
Traffic Map
Current Weather Conditions
Miami, Florida
Overcast Light Rain
Overcast
25°
Feels Like: 25°
Wind Chill: 25° Ceiling: 2500
Heat Index: 25° Visibility: 10mi
Dew Point: 24° Wind: 3mph
Humidity: 96% Direction: 170° (S)
Pressure: 29.89in Gusts: 0mph
Raw Report DataKMIA 300653Z 17003KT 10SM -RA FEW012 BKN025 BKN047 OVC130 25/24 A2989 RMK AO2 SLP122 P0000 T02500244 $
Traffic Incident Summary
Active as of:
Severity:
Category:
InformationThere was an issue retrieving the traffic information for this location. Please try a different location or try again shortly.
Advertisements
Track Severe Weather on mobile